sensor_id;sensor_type;location;lat;lon;timestamp;pressure;altitude;pressure_sealevel;temperature;humidity
5574;BME280;2563;52.242;7.956;2023-08-06T00:01:23;100422.31;;;14.31;100.00
5574;BME280;2563;52.242;7.956;2023-08-06T00:03:49;100426.50;;;14.33;100.00
5574;BME280;2563;52.242;7.956;2023-08-06T00:06:14;100423.88;;;14.35;100.00
5574;BME280;2563;52.242;7.956;2023-08-06T00:08:39;100394.41;;;14.37;100.00
5574;BME280;2563;52.242;7.956;2023-08-06T00:11:05;100390.06;;;14.38;100.00
5574;BME280;2563;52.242;7.956;2023-08-06T00:13:30;100397.00;;;14.37;100.00
5574;BME280;2563;52.242;7.956;2023-08-06T00:15:55;100391.88;;;14.36;100.00
5574;BME280;2563;52.242;7.956;2023-08-06T00:18:21;100393.56;;;14.37;100.00
5574;BME280;2563;52.242;7.956;2023-08-06T00:20:46;100390.06;;;14.38;100.00
5574;BME280;2563;52.242;7.956;2023-08-06T00:23:11;100383.97;;;14.39;100.00
5574;BME280;2563;52.242;7.956;2023-08-06T00:25:37;100385.81;;;14.37;100.00
5574;BME280;2563;52.242;7.956;2023-08-06T00:28:02;100377.97;;;14.38;100.00
5574;BME280;2563;52.242;7.956;2023-08-06T00:30:28;100368.53;;;14.37;100.00
5574;BME280;2563;52.242;7.956;2023-08-06T00:32:53;100372.91;;;14.35;100.00
5574;BME280;2563;52.242;7.956;2023-08-06T00:35:18;100363.53;;;14.33;100.00
5574;BME280;2563;52.242;7.956;2023-08-06T00:37:44;100365.28;;;14.32;100.00
5574;BME280;2563;52.242;7.956;2023-08-06T00:40:09;100366.13;;;14.33;100.00
5574;BME280;2563;52.242;7.956;2023-08-06T00:42:34;100369.53;;;14.33;100.00
5574;BME280;2563;52.242;7.956;2023-08-06T00:45:00;100366.13;;;14.33;100.00
5574;BME280;2563;52.242;7.956;2023-08-06T00:47:26;100362.75;;;14.31;100.00
5574;BME280;2563;52.242;7.956;2023-08-06T00:49:51;100359.25;;;14.32;100.00
5574;BME280;2563;52.242;7.956;2023-08-06T00:52:17;100364.44;;;14.32;100.00
5574;BME280;2563;52.242;7.956;2023-08-06T00:54:43;100366.13;;;14.33;100.00
5574;BME280;2563;52.242;7.956;2023-08-06T00:57:09;100395.38;;;14.35;100.00
5574;BME280;2563;52.242;7.956;2023-08-06T00:59:34;100407.41;;;14.36;100.00
5574;BME280;2563;52.242;7.956;2023-08-06T01:01:59;100423.97;;;14.32;100.00
5574;BME280;2563;52.242;7.956;2023-08-06T01:04:25;100420.69;;;14.28;100.00
5574;BME280;2563;52.242;7.956;2023-08-06T01:15:20;100471.88;;;14.21;100.00
5574;BME280;2563;52.242;7.956;2023-08-06T01:17:47;100482.22;;;14.21;100.00
5574;BME280;2563;52.242;7.956;2023-08-06T01:20:13;100489.09;;;14.22;100.00
5574;BME280;2563;52.242;7.956;2023-08-06T01:22:38;100494.28;;;14.22;100.00
5574;BME280;2563;52.242;7.956;2023-08-06T01:25:04;100501.09;;;14.25;100.00
5574;BME280;2563;52.242;7.956;2023-08-06T01:27:38;100506.19;;;14.26;100.00
5574;BME280;2563;52.242;7.956;2023-08-06T01:30:12;100508.72;;;14.28;100.00
5574;BME280;2563;52.242;7.956;2023-08-06T01:32:42;100509.50;;;14.30;100.00
5574;BME280;2563;52.242;7.956;2023-08-06T01:35:10;100505.28;;;14.28;100.00
5574;BME280;2563;52.242;7.956;2023-08-06T01:37:37;100468.22;;;14.27;100.00
5574;BME280;2563;52.242;7.956;2023-08-06T01:40:11;100411.03;;;14.32;100.00
5574;BME280;2563;52.242;7.956;2023-08-06T01:42:39;100416.34;;;14.29;100.00
5574;BME280;2563;52.242;7.956;2023-08-06T01:45:06;100388.00;;;14.25;100.00
5574;BME280;2563;52.242;7.956;2023-08-06T01:47:32;100400.81;;;14.29;100.00
5574;BME280;2563;52.242;7.956;2023-08-06T01:49:57;100393.81;;;14.31;100.00
5574;BME280;2563;52.242;7.956;2023-08-06T01:52:23;100387.66;;;14.33;100.00
5574;BME280;2563;52.242;7.956;2023-08-06T01:54:48;100381.59;;;14.34;100.00
5574;BME280;2563;52.242;7.956;2023-08-06T01:57:13;100379.97;;;14.32;100.00
5574;BME280;2563;52.242;7.956;2023-08-06T01:59:38;100373.13;;;14.31;100.00
5574;BME280;2563;52.242;7.956;2023-08-06T02:02:04;100323.78;;;14.34;100.00
5574;BME280;2563;52.242;7.956;2023-08-06T02:04:29;100287.47;;;14.35;100.00
5574;BME280;2563;52.242;7.956;2023-08-06T02:06:55;100249.63;;;14.33;100.00
5574;BME280;2563;52.242;7.956;2023-08-06T02:09:20;100245.22;;;14.35;100.00
5574;BME280;2563;52.242;7.956;2023-08-06T02:11:45;100316.16;;;14.31;100.00
5574;BME280;2563;52.242;7.956;2023-08-06T02:14:11;100325.59;;;14.32;100.00
5574;BME280;2563;52.242;7.956;2023-08-06T02:16:37;100324.84;;;14.30;100.00
5574;BME280;2563;52.242;7.956;2023-08-06T02:19:02;100323.13;;;14.29;100.00
5574;BME280;2563;52.242;7.956;2023-08-06T02:21:27;100317.19;;;14.26;100.00
5574;BME280;2563;52.242;7.956;2023-08-06T02:23:53;100324.06;;;14.28;100.00
5574;BME280;2563;52.242;7.956;2023-08-06T02:26:18;100330.13;;;14.26;100.00
5574;BME280;2563;52.242;7.956;2023-08-06T02:28:44;100334.53;;;14.24;100.00
5574;BME280;2563;52.242;7.956;2023-08-06T02:31:09;100328.59;;;14.22;100.00
5574;BME280;2563;52.242;7.956;2023-08-06T02:33:35;100333.78;;;14.22;100.00
5574;BME280;2563;52.242;7.956;2023-08-06T02:36:03;100336.41;;;14.21;100.00
5574;BME280;2563;52.242;7.956;2023-08-06T02:38:30;100339.06;;;14.19;100.00
5574;BME280;2563;52.242;7.956;2023-08-06T02:40:55;100331.28;;;14.19;100.00
5574;BME280;2563;52.242;7.956;2023-08-06T02:43:21;100331.50;;;14.15;100.00
5574;BME280;2563;52.242;7.956;2023-08-06T02:45:46;100324.97;;;14.06;100.00
5574;BME280;2563;52.242;7.956;2023-08-06T02:48:11;100331.19;;;14.02;100.00
5574;BME280;2563;52.242;7.956;2023-08-06T02:50:41;100329.63;;;13.98;100.00
5574;BME280;2563;52.242;7.956;2023-08-06T02:53:07;100334.03;;;13.96;100.00
5574;BME280;2563;52.242;7.956;2023-08-06T02:55:34;100331.56;;;13.93;100.00
5574;BME280;2563;52.242;7.956;2023-08-06T02:58:00;100324.44;;;13.98;100.00
5574;BME280;2563;52.242;7.956;2023-08-06T03:00:26;100323.47;;;14.00;100.00
5574;BME280;2563;52.242;7.956;2023-08-06T03:02:52;100326.28;;;13.96;100.00
5574;BME280;2563;52.242;7.956;2023-08-06T03:05:17;100320.13;;;13.98;100.00
5574;BME280;2563;52.242;7.956;2023-08-06T03:07:43;100250.56;;;13.91;100.00
5574;BME280;2563;52.242;7.956;2023-08-06T03:10:08;100244.50;;;13.92;100.00
5574;BME280;2563;52.242;7.956;2023-08-06T03:12:34;100222.06;;;13.92;100.00
5574;BME280;2563;52.242;7.956;2023-08-06T03:14:59;100009.06;;;13.92;100.00
5574;BME280;2563;52.242;7.956;2023-08-06T03:17:25;100010.81;;;13.91;100.00
5574;BME280;2563;52.242;7.956;2023-08-06T03:19:50;100004.50;;;13.97;100.00
5574;BME280;2563;52.242;7.956;2023-08-06T03:22:15;100006.31;;;13.95;100.00
5574;BME280;2563;52.242;7.956;2023-08-06T03:24:41;100000.25;;;13.96;100.00
5574;BME280;2563;52.242;7.956;2023-08-06T03:27:06;100000.25;;;13.96;100.00
5574;BME280;2563;52.242;7.956;2023-08-06T03:29:31;99994.09;;;13.98;100.00
5574;BME280;2563;52.242;7.956;2023-08-06T03:31:57;99987.16;;;13.99;100.00
5574;BME280;2563;52.242;7.956;2023-08-06T03:34:22;99987.94;;;14.01;100.00
5574;BME280;2563;52.242;7.956;2023-08-06T03:36:47;99982.75;;;14.01;100.00
5574;BME280;2563;52.242;7.956;2023-08-06T03:39:12;99999.78;;;14.05;100.00
5574;BME280;2563;52.242;7.956;2023-08-06T03:41:40;99975.72;;;14.03;100.00
5574;BME280;2563;52.242;7.956;2023-08-06T03:44:05;99970.56;;;14.03;100.00
5574;BME280;2563;52.242;7.956;2023-08-06T03:46:31;99969.81;;;14.01;100.00
5574;BME280;2563;52.242;7.956;2023-08-06T03:49:01;99963.03;;;13.98;100.00
5574;BME280;2563;52.242;7.956;2023-08-06T03:51:27;99966.69;;;13.94;100.00
5574;BME280;2563;52.242;7.956;2023-08-06T03:53:52;99966.91;;;13.90;100.00
5574;BME280;2563;52.242;7.956;2023-08-06T03:56:18;99957.47;;;13.89;100.00
5574;BME280;2563;52.242;7.956;2023-08-06T03:58:43;99955.16;;;13.82;100.00
5574;BME280;2563;52.242;7.956;2023-08-06T04:01:09;99957.81;;;13.81;100.00
5574;BME280;2563;52.242;7.956;2023-08-06T04:03:34;99951.47;;;13.69;100.00
5574;BME280;2563;52.242;7.956;2023-08-06T04:06:02;99954.97;;;13.68;100.00
5574;BME280;2563;52.242;7.956;2023-08-06T04:08:27;99958.31;;;13.70;100.00
5574;BME280;2563;52.242;7.956;2023-08-06T04:10:53;99964.34;;;13.71;100.00
5574;BME280;2563;52.242;7.956;2023-08-06T04:13:18;99953.94;;;13.72;100.00
5574;BME280;2563;52.242;7.956;2023-08-06T04:15:44;99949.75;;;13.70;100.00
5574;BME280;2563;52.242;7.956;2023-08-06T04:18:09;99958.31;;;13.70;100.00
5574;BME280;2563;52.242;7.956;2023-08-06T04:20:42;99964.34;;;13.71;100.00
5574;BME280;2563;52.242;7.956;2023-08-06T04:23:07;99960.09;;;13.70;100.00
5574;BME280;2563;52.242;7.956;2023-08-06T04:25:33;99962.31;;;13.77;100.00
5574;BME280;2563;52.242;7.956;2023-08-06T04:27:58;99956.09;;;13.81;100.00
5574;BME280;2563;52.242;7.956;2023-08-06T04:30:23;99964.31;;;13.90;100.00
5574;BME280;2563;52.242;7.956;2023-08-06T04:32:49;99957.00;;;13.98;100.00
5574;BME280;2563;52.242;7.956;2023-08-06T04:35:15;99960.38;;;14.00;100.00
5574;BME280;2563;52.242;7.956;2023-08-06T04:37:41;99954.28;;;14.01;100.00
5574;BME280;2563;52.242;7.956;2023-08-06T04:40:07;99961.91;;;14.04;100.00
5574;BME280;2563;52.242;7.956;2023-08-06T04:42:32;99959.38;;;14.02;100.00
5574;BME280;2563;52.242;7.956;2023-08-06T04:44:58;99959.25;;;14.06;100.00
5574;BME280;2563;52.242;7.956;2023-08-06T04:47:23;99966.75;;;14.10;100.00
5574;BME280;2563;52.242;7.956;2023-08-06T04:49:48;99969.22;;;14.13;100.00
5574;BME280;2563;52.242;7.956;2023-08-06T04:52:14;99970.00;;;14.15;100.00
5574;BME280;2563;52.242;7.956;2023-08-06T04:54:39;99968.09;;;14.19;100.00
5574;BME280;2563;52.242;7.956;2023-08-06T04:57:05;99964.34;;;14.24;100.00
5574;BME280;2563;52.242;7.956;2023-08-06T04:59:30;99968.69;;;14.24;100.00
5574;BME280;2563;52.242;7.956;2023-08-06T05:01:55;99964.97;;;14.30;100.00
5574;BME280;2563;52.242;7.956;2023-08-06T05:04:21;99964.75;;;14.34;100.00
5574;BME280;2563;52.242;7.956;2023-08-06T05:06:46;99954.31;;;14.36;100.00
5574;BME280;2563;52.242;7.956;2023-08-06T05:09:11;99945.66;;;14.37;100.00
5574;BME280;2563;52.242;7.956;2023-08-06T05:11:37;99938.88;;;14.34;100.00
5574;BME280;2563;52.242;7.956;2023-08-06T05:14:02;99945.47;;;14.40;100.00
5574;BME280;2563;52.242;7.956;2023-08-06T05:16:27;99944.56;;;14.41;100.00
5574;BME280;2563;52.242;7.956;2023-08-06T05:18:53;99937.41;;;14.46;100.00
5574;BME280;2563;52.242;7.956;2023-08-06T05:21:18;99937.09;;;14.52;100.00
5574;BME280;2563;52.242;7.956;2023-08-06T05:23:44;99938.50;;;14.59;100.00
5574;BME280;2563;52.242;7.956;2023-08-06T05:26:09;99933.25;;;14.61;100.00
5574;BME280;2563;52.242;7.956;2023-08-06T05:28:34;99923.94;;;14.57;100.00
5574;BME280;2563;52.242;7.956;2023-08-06T05:31:04;99918.38;;;14.64;100.00
5574;BME280;2563;52.242;7.956;2023-08-06T05:33:30;99913.97;;;14.66;100.00
5574;BME280;2563;52.242;7.956;2023-08-06T05:35:55;99906.13;;;14.68;100.00
5574;BME280;2563;52.242;7.956;2023-08-06T05:38:20;99897.53;;;14.83;100.00
5574;BME280;2563;52.242;7.956;2023-08-06T05:40:46;99896.50;;;15.19;100.00
5574;BME280;2563;52.242;7.956;2023-08-06T05:43:11;99867.91;;;15.21;100.00
5574;BME280;2563;52.242;7.956;2023-08-06T05:45:37;99828.09;;;15.22;100.00
5574;BME280;2563;52.242;7.956;2023-08-06T05:48:02;99817.50;;;15.72;100.00
5574;BME280;2563;52.242;7.956;2023-08-06T05:50:27;99762.25;;;16.29;100.00
5574;BME280;2563;52.242;7.956;2023-08-06T05:52:53;99650.50;;;16.58;100.00
5574;BME280;2563;52.242;7.956;2023-08-06T05:55:20;99450.50;;;16.18;100.00
5574;BME280;2563;52.242;7.956;2023-08-06T05:57:45;99411.78;;;16.28;100.00
5574;BME280;2563;52.242;7.956;2023-08-06T06:00:11;99404.56;;;16.06;100.00
5574;BME280;2563;52.242;7.956;2023-08-06T06:02:36;99409.09;;;15.89;100.00
5574;BME280;2563;52.242;7.956;2023-08-06T06:05:02;99445.63;;;15.86;100.00
5574;BME280;2563;52.242;7.956;2023-08-06T06:07:27;99472.94;;;15.92;100.00
5574;BME280;2563;52.242;7.956;2023-08-06T06:09:53;99479.16;;;15.89;100.00
5574;BME280;2563;52.242;7.956;2023-08-06T06:12:18;99489.31;;;16.07;100.00
5574;BME280;2563;52.242;7.956;2023-08-06T06:14:43;99455.56;;;16.07;100.00
5574;BME280;2563;52.242;7.956;2023-08-06T06:17:08;99433.47;;;16.14;100.00
5574;BME280;2563;52.242;7.956;2023-08-06T06:19:34;99379.75;;;16.02;100.00
5574;BME280;2563;52.242;7.956;2023-08-06T06:21:59;99400.03;;;16.22;100.00
5574;BME280;2563;52.242;7.956;2023-08-06T06:24:24;99369.00;;;16.33;100.00
5574;BME280;2563;52.242;7.956;2023-08-06T06:26:50;99352.56;;;16.20;100.00
5574;BME280;2563;52.242;7.956;2023-08-06T06:29:15;99334.19;;;16.23;100.00
5574;BME280;2563;52.242;7.956;2023-08-06T06:31:41;99325.47;;;16.50;100.00
5574;BME280;2563;52.242;7.956;2023-08-06T06:34:06;99305.91;;;16.83;100.00
5574;BME280;2563;52.242;7.956;2023-08-06T06:36:31;99257.03;;;17.71;100.00
5574;BME280;2563;52.242;7.956;2023-08-06T06:38:57;99238.19;;;17.56;100.00
5574;BME280;2563;52.242;7.956;2023-08-06T06:41:22;99216.41;;;17.57;100.00
5574;BME280;2563;52.242;7.956;2023-08-06T06:43:47;99180.78;;;17.82;100.00
5574;BME280;2563;52.242;7.956;2023-08-06T06:46:13;99171.22;;;17.47;100.00
5574;BME280;2563;52.242;7.956;2023-08-06T06:48:38;99157.56;;;17.68;100.00
5574;BME280;2563;52.242;7.956;2023-08-06T06:51:03;99146.69;;;18.19;100.00
5574;BME280;2563;52.242;7.956;2023-08-06T06:53:29;99126.16;;;19.12;100.00
5574;BME280;2563;52.242;7.956;2023-08-06T06:55:55;99105.91;;;20.08;100.00
5574;BME280;2563;52.242;7.956;2023-08-06T06:58:20;99149.78;;;19.74;100.00
5574;BME280;2563;52.242;7.956;2023-08-06T07:00:47;99191.38;;;19.33;100.00
5574;BME280;2563;52.242;7.956;2023-08-06T07:03:16;99232.94;;;19.25;100.00
5574;BME280;2563;52.242;7.956;2023-08-06T07:05:44;99281.41;;;18.73;100.00
5574;BME280;2563;52.242;7.956;2023-08-06T07:08:09;99317.66;;;18.65;100.00
5574;BME280;2563;52.242;7.956;2023-08-06T07:10:35;99323.34;;;19.04;100.00
5574;BME280;2563;52.242;7.956;2023-08-06T07:13:00;99333.41;;;19.52;100.00
5574;BME280;2563;52.242;7.956;2023-08-06T07:15:25;99346.91;;;19.68;100.00
5574;BME280;2563;52.242;7.956;2023-08-06T07:17:51;99352.69;;;20.04;100.00
5574;BME280;2563;52.242;7.956;2023-08-06T07:20:16;99366.53;;;21.49;100.00
5574;BME280;2563;52.242;7.956;2023-08-06T07:22:41;99412.19;;;21.25;100.00
5574;BME280;2563;52.242;7.956;2023-08-06T07:25:07;99466.22;;;20.74;100.00
5574;BME280;2563;52.242;7.956;2023-08-06T07:27:33;99485.03;;;22.20;100.00
5574;BME280;2563;52.242;7.956;2023-08-06T07:29:58;99549.47;;;22.23;100.00
5574;BME280;2563;52.242;7.956;2023-08-06T07:32:24;99636.72;;;22.54;100.00
5574;BME280;2563;52.242;7.956;2023-08-06T07:34:49;99726.75;;;22.84;100.00
5574;BME280;2563;52.242;7.956;2023-08-06T07:37:15;99816.94;;;23.62;100.00
5574;BME280;2563;52.242;7.956;2023-08-06T07:39:40;99904.31;;;23.54;100.00
5574;BME280;2563;52.242;7.956;2023-08-06T07:42:07;99978.44;;;22.87;100.00
5574;BME280;2563;52.242;7.956;2023-08-06T07:44:32;100015.34;;;22.32;100.00
5574;BME280;2563;52.242;7.956;2023-08-06T07:46:58;100050.16;;;21.79;100.00
5574;BME280;2563;52.242;7.956;2023-08-06T07:49:23;100058.25;;;21.42;100.00
5574;BME280;2563;52.242;7.956;2023-08-06T07:51:48;100087.94;;;21.19;100.00
5574;BME280;2563;52.242;7.956;2023-08-06T07:54:14;100096.94;;;20.57;100.00
5574;BME280;2563;52.242;7.956;2023-08-06T07:56:39;100095.22;;;20.69;100.00
5574;BME280;2563;52.242;7.956;2023-08-06T07:59:05;100085.97;;;20.76;100.00
5574;BME280;2563;52.242;7.956;2023-08-06T08:01:30;100077.06;;;20.90;100.00
5574;BME280;2563;52.242;7.956;2023-08-06T08:03:55;100063.75;;;20.81;100.00
5574;BME280;2563;52.242;7.956;2023-08-06T08:06:21;100050.03;;;20.78;100.00
5574;BME280;2563;52.242;7.956;2023-08-06T08:08:46;100030.84;;;20.90;100.00
5574;BME280;2563;52.242;7.956;2023-08-06T08:11:12;99987.28;;;20.89;100.00
5574;BME280;2563;52.242;7.956;2023-08-06T08:13:39;99957.28;;;20.71;100.00
5574;BME280;2563;52.242;7.956;2023-08-06T08:16:04;99923.28;;;20.71;100.00
5574;BME280;2563;52.242;7.956;2023-08-06T08:18:30;99880.38;;;20.62;100.00
5574;BME280;2563;52.242;7.956;2023-08-06T08:20:56;99841.75;;;20.54;100.00
5574;BME280;2563;52.242;7.956;2023-08-06T08:23:22;99824.16;;;20.56;100.00
5574;BME280;2563;52.242;7.956;2023-08-06T08:25:47;99812.25;;;20.52;100.00
5574;BME280;2563;52.242;7.956;2023-08-06T08:28:12;99795.16;;;20.26;100.00
5574;BME280;2563;52.242;7.956;2023-08-06T08:30:40;99785.16;;;20.19;100.00
5574;BME280;2563;52.242;7.956;2023-08-06T08:33:06;99781.22;;;20.25;100.00
5574;BME280;2563;52.242;7.956;2023-08-06T08:35:31;99763.28;;;20.32;100.00
5574;BME280;2563;52.242;7.956;2023-08-06T08:37:56;99761.63;;;20.08;100.00
5574;BME280;2563;52.242;7.956;2023-08-06T08:40:26;99752.59;;;20.12;100.00
5574;BME280;2563;52.242;7.956;2023-08-06T08:42:55;99748.09;;;20.14;100.00
5574;BME280;2563;52.242;7.956;2023-08-06T08:45:22;99741.78;;;20.06;100.00
5574;BME280;2563;52.242;7.956;2023-08-06T08:47:49;99739.28;;;20.15;100.00
5574;BME280;2563;52.242;7.956;2023-08-06T08:50:16;99730.84;;;20.34;100.00
5574;BME280;2563;52.242;7.956;2023-08-06T08:52:42;99727.06;;;20.16;100.00
5574;BME280;2563;52.242;7.956;2023-08-06T08:55:11;99727.16;;;19.92;100.00
5574;BME280;2563;52.242;7.956;2023-08-06T08:57:37;99728.38;;;19.88;100.00
5574;BME280;2563;52.242;7.956;2023-08-06T09:00:03;99724.53;;;19.92;100.00
5574;BME280;2563;52.242;7.956;2023-08-06T09:02:30;99727.66;;;20.08;100.00
5574;BME280;2563;52.242;7.956;2023-08-06T09:05:01;99724.09;;;19.98;100.00
5574;BME280;2563;52.242;7.956;2023-08-06T09:07:32;99719.22;;;20.16;100.00
5574;BME280;2563;52.242;7.956;2023-08-06T09:10:02;99718.38;;;20.27;100.00
5574;BME280;2563;52.242;7.956;2023-08-06T09:12:29;99716.25;;;20.32;100.00
5574;BME280;2563;52.242;7.956;2023-08-06T09:14:54;99719.81;;;20.31;100.00
5574;BME280;2563;52.242;7.956;2023-08-06T09:17:19;99713.88;;;20.63;100.00
5574;BME280;2563;52.242;7.956;2023-08-06T09:19:46;99713.03;;;20.39;100.00
5574;BME280;2563;52.242;7.956;2023-08-06T09:22:13;99714.13;;;20.59;100.00
5574;BME280;2563;52.242;7.956;2023-08-06T09:24:42;99710.31;;;20.96;100.00
5574;BME280;2563;52.242;7.956;2023-08-06T09:27:12;99712.97;;;21.17;100.00
5574;BME280;2563;52.242;7.956;2023-08-06T09:29:42;99709.53;;;21.37;100.00
5574;BME280;2563;52.242;7.956;2023-08-06T09:32:08;99711.00;;;21.41;100.00
5574;BME280;2563;52.242;7.956;2023-08-06T09:34:33;99708.97;;;21.76;100.00
5574;BME280;2563;52.242;7.956;2023-08-06T09:36:58;99699.28;;;22.88;100.00
5574;BME280;2563;52.242;7.956;2023-08-06T09:39:28;99694.41;;;24.36;100.00
5574;BME280;2563;52.242;7.956;2023-08-06T09:41:58;99698.00;;;25.26;100.00
5574;BME280;2563;52.242;7.956;2023-08-06T09:44:25;99725.34;;;25.15;100.00
5574;BME280;2563;52.242;7.956;2023-08-06T09:46:54;99744.47;;;25.35;100.00
5574;BME280;2563;52.242;7.956;2023-08-06T09:49:26;99777.53;;;24.84;100.00
5574;BME280;2563;52.242;7.956;2023-08-06T09:51:52;99804.34;;;23.85;100.00
5574;BME280;2563;52.242;7.956;2023-08-06T09:54:22;99822.84;;;22.65;100.00
5574;BME280;2563;52.242;7.956;2023-08-06T09:56:48;99828.19;;;22.12;100.00
5574;BME280;2563;52.242;7.956;2023-08-06T09:59:13;99833.75;;;21.98;100.00
5574;BME280;2563;52.242;7.956;2023-08-06T10:01:41;99836.41;;;21.77;100.00
5574;BME280;2563;52.242;7.956;2023-08-06T10:04:06;99829.13;;;22.01;100.00
5574;BME280;2563;52.242;7.956;2023-08-06T10:06:37;99837.22;;;21.77;100.00
5574;BME280;2563;52.242;7.956;2023-08-06T10:09:03;99834.72;;;21.76;100.00
5574;BME280;2563;52.242;7.956;2023-08-06T10:11:30;99828.28;;;21.80;100.00
5574;BME280;2563;52.242;7.956;2023-08-06T10:14:16;99833.59;;;21.14;100.00
5574;BME280;2563;52.242;7.956;2023-08-06T10:16:45;99838.06;;;20.68;100.00
5574;BME280;2563;52.242;7.956;2023-08-06T10:19:13;99825.34;;;20.86;100.00
5574;BME280;2563;52.242;7.956;2023-08-06T10:21:39;99827.19;;;21.07;100.00
5574;BME280;2563;52.242;7.956;2023-08-06T10:24:08;99817.94;;;20.46;100.00
5574;BME280;2563;52.242;7.956;2023-08-06T10:26:36;99820.56;;;20.46;100.00
5574;BME280;2563;52.242;7.956;2023-08-06T10:29:37;99807.28;;;20.72;100.00
5574;BME280;2563;52.242;7.956;2023-08-06T10:32:03;99806.50;;;21.03;100.00
5574;BME280;2563;52.242;7.956;2023-08-06T10:34:58;99810.69;;;20.95;100.00
5574;BME280;2563;52.242;7.956;2023-08-06T10:37:36;99801.97;;;21.17;100.00
5574;BME280;2563;52.242;7.956;2023-08-06T10:40:02;99792.25;;;21.08;100.00
5574;BME280;2563;52.242;7.956;2023-08-06T10:42:29;99801.09;;;20.84;100.00
5574;BME280;2563;52.242;7.956;2023-08-06T10:45:14;99797.28;;;20.88;100.00
5574;BME280;2563;52.242;7.956;2023-08-06T10:47:40;99793.59;;;20.79;100.00
5574;BME280;2563;52.242;7.956;2023-08-06T10:50:14;99794.31;;;20.81;100.00
5574;BME280;2563;52.242;7.956;2023-08-06T10:52:42;99783.75;;;20.83;100.00
5574;BME280;2563;52.242;7.956;2023-08-06T10:55:07;99790.59;;;20.95;100.00
5574;BME280;2563;52.242;7.956;2023-08-06T10:57:34;99776.75;;;21.04;100.00
5574;BME280;2563;52.242;7.956;2023-08-06T10:59:59;99778.22;;;20.97;100.00
5574;BME280;2563;52.242;7.956;2023-08-06T11:02:25;99781.31;;;20.91;100.00
5574;BME280;2563;52.242;7.956;2023-08-06T11:04:50;99776.16;;;20.69;100.00
5574;BME280;2563;52.242;7.956;2023-08-06T11:07:16;99786.13;;;20.52;100.00
5574;BME280;2563;52.242;7.956;2023-08-06T11:09:42;99784.19;;;20.32;100.00
5574;BME280;2563;52.242;7.956;2023-08-06T11:12:10;99777.56;;;20.50;100.00
5574;BME280;2563;52.242;7.956;2023-08-06T11:14:36;99781.13;;;20.60;100.00
5574;BME280;2563;52.242;7.956;2023-08-06T11:17:02;99776.56;;;20.85;100.00
5574;BME280;2563;52.242;7.956;2023-08-06T11:19:27;99784.66;;;20.93;100.00
5574;BME280;2563;52.242;7.956;2023-08-06T11:21:52;99780.63;;;20.78;100.00
5574;BME280;2563;52.242;7.956;2023-08-06T11:24:18;99784.31;;;21.19;100.00
5574;BME280;2563;52.242;7.956;2023-08-06T11:26:43;99778.78;;;21.44;100.00
5574;BME280;2563;52.242;7.956;2023-08-06T11:29:10;99780.00;;;21.40;100.00
5574;BME280;2563;52.242;7.956;2023-08-06T11:31:36;99769.94;;;21.57;100.00
5574;BME280;2563;52.242;7.956;2023-08-06T11:34:01;99776.97;;;21.77;100.00
5574;BME280;2563;52.242;7.956;2023-08-06T11:36:40;99786.09;;;21.41;100.00
5574;BME280;2563;52.242;7.956;2023-08-06T11:39:05;99788.88;;;21.17;100.00
5574;BME280;2563;52.242;7.956;2023-08-06T11:41:31;99796.19;;;20.91;100.00
5574;BME280;2563;52.242;7.956;2023-08-06T11:43:58;99803.22;;;20.34;100.00
5574;BME280;2563;52.242;7.956;2023-08-06T11:46:24;99799.84;;;19.98;100.00
5574;BME280;2563;52.242;7.956;2023-08-06T11:48:58;99791.78;;;19.66;100.00
5574;BME280;2563;52.242;7.956;2023-08-06T11:51:27;99783.66;;;19.22;100.00
5574;BME280;2563;52.242;7.956;2023-08-06T11:53:56;99771.28;;;19.13;100.00
5574;BME280;2563;52.242;7.956;2023-08-06T11:56:21;99779.63;;;18.81;100.00
5574;BME280;2563;52.242;7.956;2023-08-06T11:58:47;99777.44;;;18.75;100.00
5574;BME280;2563;52.242;7.956;2023-08-06T12:01:13;99782.16;;;18.57;100.00
5574;BME280;2563;52.242;7.956;2023-08-06T12:03:39;99777.25;;;18.65;100.00
5574;BME280;2563;52.242;7.956;2023-08-06T12:06:05;99787.06;;;18.62;100.00
5574;BME280;2563;52.242;7.956;2023-08-06T12:08:30;99779.47;;;18.59;100.00
5574;BME280;2563;52.242;7.956;2023-08-06T12:10:56;99769.84;;;18.59;100.00
5574;BME280;2563;52.242;7.956;2023-08-06T12:13:21;99775.16;;;18.58;100.00
5574;BME280;2563;52.242;7.956;2023-08-06T12:15:47;99780.72;;;18.40;100.00
5574;BME280;2563;52.242;7.956;2023-08-06T12:18:12;99776.06;;;18.20;100.00
5574;BME280;2563;52.242;7.956;2023-08-06T12:20:37;99778.78;;;18.05;100.00
5574;BME280;2563;52.242;7.956;2023-08-06T12:23:04;99780.44;;;17.94;100.00
5574;BME280;2563;52.242;7.956;2023-08-06T12:25:29;99767.97;;;17.59;100.00
5574;BME280;2563;52.242;7.956;2023-08-06T12:27:55;99771.47;;;17.45;100.00
5574;BME280;2563;52.242;7.956;2023-08-06T12:30:20;99751.16;;;17.37;100.00
5574;BME280;2563;52.242;7.956;2023-08-06T12:32:45;99752.56;;;17.56;100.00
5574;BME280;2563;52.242;7.956;2023-08-06T12:35:11;99742.28;;;17.67;100.00
5574;BME280;2563;52.242;7.956;2023-08-06T12:37:36;99738.66;;;17.82;100.00
5574;BME280;2563;52.242;7.956;2023-08-06T12:40:04;99745.34;;;17.99;100.00
5574;BME280;2563;52.242;7.956;2023-08-06T12:42:29;99754.50;;;18.18;100.00
5574;BME280;2563;52.242;7.956;2023-08-06T12:44:54;99760.00;;;18.26;100.00
5574;BME280;2563;52.242;7.956;2023-08-06T12:47:20;99721.75;;;18.26;100.00
5574;BME280;2563;52.242;7.956;2023-08-06T12:49:45;99723.03;;;18.21;100.00
5574;BME280;2563;52.242;7.956;2023-08-06T12:52:11;99733.22;;;18.24;100.00
5574;BME280;2563;52.242;7.956;2023-08-06T12:54:38;99742.22;;;18.20;100.00
5574;BME280;2563;52.242;7.956;2023-08-06T12:57:04;99748.88;;;17.98;100.00
5574;BME280;2563;52.242;7.956;2023-08-06T12:59:30;99790.00;;;18.19;100.00
5574;BME280;2563;52.242;7.956;2023-08-06T13:01:56;99796.28;;;18.03;100.00
5574;BME280;2563;52.242;7.956;2023-08-06T13:04:21;99790.94;;;18.05;100.00
5574;BME280;2563;52.242;7.956;2023-08-06T13:06:46;99791.34;;;17.86;100.00
5574;BME280;2563;52.242;7.956;2023-08-06T13:09:12;99786.34;;;17.83;100.00
5574;BME280;2563;52.242;7.956;2023-08-06T13:11:39;99767.38;;;17.81;100.00